Time;durP1;ratioP1;P1;durP2;ratioP2;P2;SDS_P1;SDS_P2;PMS_P1;PMS_P2;Temp;Humidity;BMP_temperature;BMP_pressure;BME280_temperature;BME280_humidity;BME280_pressure;Samples;Min_cycle;Max_cycle;Signal;HPM_P1;HPM_P2
2021/06/28 04:01:47;;;;;;;14.20;13.00;;;18.30;99.90;;;;;;5404070;22;21083;-67
2021/06/28 04:04:14;;;;;;;14.80;13.50;;;18.50;99.90;;;;;;4990091;28;20483;-68
2021/06/28 04:06:40;;;;;;;15.10;13.80;;;18.50;99.90;;;;;;4990149;28;20478;-69
2021/06/28 04:09:07;;;;;;;14.20;13.00;;;18.60;99.90;;;;;;4989992;28;20827;-69
2021/06/28 04:11:34;;;;;;;14.33;13.10;;;18.60;99.90;;;;;;4975420;28;20487;-68
2021/06/28 04:14:00;;;;;;;13.90;12.87;;;18.80;99.90;;;;;;4975055;28;20491;-69
2021/06/28 04:16:27;;;;;;;15.80;14.40;;;18.80;99.90;;;;;;4975654;28;20479;-68
2021/06/28 04:18:55;;;;;;;14.70;13.53;;;18.80;99.90;;;;;;4994164;28;20822;-68
2021/06/28 04:21:22;;;;;;;16.17;14.67;;;18.80;99.90;;;;;;4975223;28;20836;-69
2021/06/28 04:23:49;;;;;;;15.20;13.90;;;18.80;99.90;;;;;;4974726;28;21026;-69
2021/06/28 04:26:15;;;;;;;14.27;13.07;;;19.00;99.90;;;;;;4991399;28;20827;-69
2021/06/28 04:28:42;;;;;;;13.70;12.60;;;19.40;99.90;;;;;;4980115;28;20501;-68
2021/06/28 04:31:09;;;;;;;14.47;13.37;;;19.90;99.90;;;;;;4975792;28;20503;-69
2021/06/28 04:33:35;;;;;;;13.40;12.30;;;20.30;99.90;;;;;;4993398;28;20477;-68
2021/06/28 04:36:04;;;;;;;12.60;11.60;;;20.80;99.90;;;;;;4988142;28;20470;-69
2021/06/28 04:38:30;;;;;;;12.50;11.53;;;20.80;99.90;;;;;;4993910;28;20490;-69
2021/06/28 04:40:57;;;;;;;12.10;11.30;;;20.80;99.90;;;;;;4990415;28;20478;-69
2021/06/28 04:43:24;;;;;;;13.27;12.10;;;20.60;99.90;;;;;;4992248;28;20493;-70
2021/06/28 04:45:50;;;;;;;13.67;12.63;;;20.30;99.90;;;;;;4978292;28;20456;-69
2021/06/28 04:48:17;;;;;;;12.97;11.90;;;20.00;99.90;;;;;;4983424;28;20463;-69
2021/06/28 04:50:44;;;;;;;13.17;11.97;;;19.80;99.90;;;;;;4992633;28;20502;-69
2021/06/28 04:53:12;;;;;;;14.57;13.37;;;19.70;99.90;;;;;;4987391;28;20528;-69
2021/06/28 04:55:38;;;;;;;12.97;11.97;;;19.70;99.90;;;;;;4974223;28;20583;-69
2021/06/28 04:58:05;;;;;;;14.30;13.10;;;19.60;99.90;;;;;;4978129;28;20458;-69
2021/06/28 05:00:32;;;;;;;13.47;12.47;;;19.60;99.90;;;;;;4992732;28;20490;-68
2021/06/28 05:02:59;;;;;;;14.20;12.93;;;19.60;99.90;;;;;;4974478;28;20464;-68
2021/06/28 05:05:25;;;;;;;13.80;12.70;;;19.60;99.90;;;;;;4991728;28;20479;-69
2021/06/28 05:07:53;;;;;;;14.50;13.50;;;19.60;99.90;;;;;;4974568;28;20463;-69
2021/06/28 05:10:21;;;;;;;14.90;13.53;;;19.50;99.90;;;;;;4973430;28;20542;-69
2021/06/28 05:12:47;;;;;;;13.50;12.50;;;19.60;99.90;;;;;;4973881;28;20796;-69
2021/06/28 05:15:16;;;;;;;14.27;12.97;;;19.60;99.90;;;;;;4974522;28;20797;-69
2021/06/28 05:17:43;;;;;;;13.60;12.50;;;19.60;99.90;;;;;;4974343;28;20900;-69
2021/06/28 05:20:12;;;;;;;13.50;12.37;;;19.70;99.90;;;;;;4974029;28;20814;-69
2021/06/28 05:22:39;;;;;;;14.33;13.03;;;19.90;99.90;;;;;;4973748;28;20459;-68
2021/06/28 05:25:07;;;;;;;13.57;12.47;;;19.90;99.90;;;;;;4973751;28;20491;-69
2021/06/28 05:27:36;;;;;;;15.07;13.07;;;19.90;99.90;;;;;;4972460;28;20827;-69
2021/06/28 05:30:07;;;;;;;14.87;13.57;;;19.90;99.90;;;;;;4974108;28;20475;-67
2021/06/28 05:32:33;;;;;;;13.37;12.47;;;19.80;99.90;;;;;;4973178;28;20614;-66
2021/06/28 05:35:00;;;;;;;13.97;12.87;;;19.90;99.90;;;;;;4973064;28;20794;-67
2021/06/28 05:37:27;;;;;;;11.93;11.03;;;19.90;99.90;;;;;;4973373;28;20467;-67
2021/06/28 05:39:53;;;;;;;12.93;11.80;;;19.90;99.90;;;;;;4975129;28;20459;-66
2021/06/28 05:42:20;;;;;;;13.40;12.10;;;19.90;99.90;;;;;;4972751;28;20515;-67
2021/06/28 05:44:48;;;;;;;14.20;13.10;;;20.00;99.90;;;;;;4974964;28;20491;-67
2021/06/28 05:47:16;;;;;;;11.80;10.90;;;20.20;99.90;;;;;;4987383;28;20455;-67
2021/06/28 05:49:45;;;;;;;13.10;12.10;;;20.30;99.90;;;;;;4983842;28;20459;-66
2021/06/28 05:52:15;;;;;;;12.80;11.80;;;20.40;99.90;;;;;;4989317;28;20483;-67
2021/06/28 05:54:41;;;;;;;13.17;12.20;;;20.50;99.90;;;;;;4976579;28;20475;-67
2021/06/28 05:57:08;;;;;;;12.50;11.50;;;20.70;99.90;;;;;;4985331;28;20475;-67
2021/06/28 05:59:35;;;;;;;12.67;11.57;;;20.90;99.90;;;;;;4984961;28;20810;-66
2021/06/28 06:02:03;;;;;;;12.13;11.20;;;21.00;99.90;;;;;;4989748;28;20821;-67
2021/06/28 06:04:30;;;;;;;12.13;11.30;;;20.90;99.90;;;;;;4981577;28;20483;-67
2021/06/28 06:06:58;;;;;;;12.13;11.10;;;21.00;99.90;;;;;;4991914;28;20461;-66
2021/06/28 06:09:25;;;;;;;12.13;11.17;;;21.00;99.90;;;;;;4983562;28;20474;-66
2021/06/28 06:11:52;;;;;;;11.50;10.60;;;21.20;99.90;;;;;;4978650;28;20480;-66
2021/06/28 06:14:20;;;;;;;11.23;10.43;;;21.30;99.90;;;;;;4976411;28;20541;-67
2021/06/28 06:16:46;;;;;;;9.97;9.17;;;21.50;99.90;;;;;;4977661;28;20464;-67
2021/06/28 06:19:14;;;;;;;10.10;9.40;;;21.70;99.90;;;;;;4975390;28;20468;-66
2021/06/28 06:21:41;;;;;;;9.77;9.07;;;21.90;99.90;;;;;;4980054;28;20506;-68
2021/06/28 06:24:08;;;;;;;9.50;8.90;;;22.00;99.90;;;;;;4973877;28;20483;-66
2021/06/28 06:26:35;;;;;;;9.13;8.10;;;22.00;99.90;;;;;;4973228;28;20475;-66
2021/06/28 06:29:02;;;;;;;8.73;8.00;;;22.10;99.90;;;;;;4975162;28;20475;-67
2021/06/28 06:31:28;;;;;;;8.60;8.00;;;22.10;99.90;;;;;;4977178;28;20475;-67
2021/06/28 06:33:55;;;;;;;9.03;8.43;;;22.20;99.90;;;;;;4974201;28;20471;-65
2021/06/28 06:36:23;;;;;;;8.67;8.17;;;22.30;99.90;;;;;;4980583;28;20460;-66
2021/06/28 06:38:50;;;;;;;8.07;7.50;;;22.40;99.90;;;;;;4975685;28;20468;-66
2021/06/28 06:41:16;;;;;;;8.97;8.37;;;22.40;99.90;;;;;;4977225;28;20487;-66
2021/06/28 06:43:43;;;;;;;9.30;8.70;;;22.50;99.90;;;;;;4983235;28;20488;-66
2021/06/28 06:46:10;;;;;;;8.77;8.17;;;22.60;99.90;;;;;;4978989;28;20472;-67
2021/06/28 06:48:36;;;;;;;7.97;7.37;;;22.80;99.90;;;;;;4972637;28;20979;-66
2021/06/28 06:51:04;;;;;;;7.87;7.37;;;22.90;99.90;;;;;;4983327;28;20501;-68
2021/06/28 06:53:32;;;;;;;7.93;7.33;;;22.90;99.90;;;;;;4990739;28;20466;-67
2021/06/28 06:56:05;;;;;;;7.50;7.00;;;22.90;99.90;;;;;;4983776;28;20463;-68
2021/06/28 06:58:31;;;;;;;7.57;7.17;;;23.10;99.90;;;;;;4986799;28;20466;-67
2021/06/28 07:00:58;;;;;;;10.37;9.50;;;23.30;99.90;;;;;;4986697;28;20995;-67
2021/06/28 07:03:25;;;;;;;8.83;8.23;;;23.40;99.90;;;;;;4985495;28;20456;-68
2021/06/28 07:05:51;;;;;;;9.73;9.02;;;23.30;99.90;;;;;;4982892;28;20456;-66
2021/06/28 07:08:18;;;;;;;8.90;8.30;;;23.40;99.90;;;;;;4992202;28;20511;-66
2021/06/28 07:10:46;;;;;;;8.17;7.47;;;23.50;99.90;;;;;;4983519;28;20479;-66
2021/06/28 07:13:14;;;;;;;6.40;6.10;;;23.70;99.90;;;;;;4975807;28;20470;-66
2021/06/28 07:15:41;;;;;;;6.83;6.33;;;24.10;99.90;;;;;;4984208;28;20455;-67
2021/06/28 07:18:08;;;;;;;10.77;10.03;;;25.20;99.90;;;;;;4993556;28;20541;-68
2021/06/28 07:20:35;;;;;;;7.70;7.30;;;25.50;99.90;;;;;;4982715;28;20856;-67
2021/06/28 07:23:01;;;;;;;6.90;6.50;;;25.90;99.90;;;;;;4984602;28;20964;-67
2021/06/28 07:25:28;;;;;;;6.50;6.20;;;26.00;99.90;;;;;;4981205;28;21161;-68
2021/06/28 07:27:57;;;;;;;7.77;7.20;;;25.80;99.90;;;;;;4980767;28;20463;-67
2021/06/28 07:30:25;;;;;;;5.83;5.63;;;25.70;99.90;;;;;;4975335;28;20460;-67
2021/06/28 07:32:52;;;;;;;6.80;6.40;;;25.50;99.90;;;;;;4972300;28;20480;-68
2021/06/28 07:35:20;;;;;;;6.57;6.27;;;25.30;99.90;;;;;;4987025;28;20465;-66
2021/06/28 07:37:47;;;;;;;5.80;5.60;;;25.20;99.90;;;;;;4978396;28;20959;-67
2021/06/28 07:40:16;;;;;;;6.60;6.30;;;25.00;99.90;;;;;;4980976;28;20804;-67
2021/06/28 07:42:45;;;;;;;6.87;6.57;;;24.90;99.90;;;;;;4982328;28;20459;-66
2021/06/28 07:45:15;;;;;;;5.47;5.17;;;24.90;99.90;;;;;;4979173;28;20475;-70
2021/06/28 07:47:42;;;;;;;7.10;6.70;;;24.80;99.90;;;;;;4976837;28;20459;-66
2021/06/28 07:50:10;;;;;;;6.53;6.23;;;24.80;99.90;;;;;;4964703;28;20467;-68
2021/06/28 07:52:37;;;;;;;7.07;6.63;;;24.70;99.90;;;;;;4989009;28;20470;-69
2021/06/28 07:55:05;;;;;;;6.40;6.10;;;24.80;99.90;;;;;;4979365;28;20807;-68
2021/06/28 07:57:32;;;;;;;6.33;5.93;;;24.80;99.90;;;;;;4977431;28;20951;-68
2021/06/28 07:59:59;;;;;;;6.37;6.07;;;25.00;99.90;;;;;;4987571;28;20467;-68
2021/06/28 08:02:27;;;;;;;7.17;6.83;;;25.00;99.90;;;;;;4991902;28;20494;-68
2021/06/28 08:04:53;;;;;;;6.90;6.40;;;25.10;99.90;;;;;;4992762;28;20475;-68
2021/06/28 08:07:21;;;;;;;6.73;6.43;;;25.10;99.90;;;;;;4988367;28;20474;-68
2021/06/28 08:09:48;;;;;;;7.20;6.80;;;25.20;99.90;;;;;;4981875;28;20462;-68
2021/06/28 08:12:14;;;;;;;6.90;6.50;;;25.30;99.90;;;;;;4990338;28;20499;-68
2021/06/28 08:14:41;;;;;;;7.00;6.70;;;25.20;99.90;;;;;;4986915;28;20455;-68
2021/06/28 08:17:08;;;;;;;6.70;6.40;;;25.30;99.90;;;;;;4982349;28;20463;-68
2021/06/28 08:19:36;;;;;;;7.40;7.00;;;25.40;99.90;;;;;;4978383;28;20498;-68
2021/06/28 08:22:03;;;;;;;6.30;6.00;;;25.80;99.90;;;;;;4985619;28;20494;-67
2021/06/28 08:24:30;;;;;;;6.30;6.00;;;26.40;99.90;;;;;;4989019;28;20518;-68
2021/06/28 08:26:57;;;;;;;6.90;6.50;;;26.70;99.90;;;;;;4986073;28;20989;-68
2021/06/28 08:29:23;;;;;;;6.10;5.90;;;27.40;99.90;;;;;;4989246;28;20455;-68
2021/06/28 08:31:50;;;;;;;5.97;5.73;;;27.60;99.90;;;;;;4980619;28;20485;-68
2021/06/28 08:34:17;;;;;;;5.53;5.43;;;28.20;99.90;;;;;;4987654;28;20634;-68
2021/06/28 08:36:46;;;;;;;6.27;5.87;;;28.00;99.90;;;;;;4978673;28;20468;-68
2021/06/28 08:39:14;;;;;;;5.90;5.50;;;28.50;99.90;;;;;;4988500;28;20772;-69
2021/06/28 08:41:43;;;;;;;5.87;5.37;;;29.20;99.90;;;;;;4985683;28;20491;-68
2021/06/28 08:44:12;;;;;;;5.70;5.50;;;28.80;99.90;;;;;;4989343;28;20468;-68
2021/06/28 08:46:38;;;;;;;6.60;6.10;;;28.30;99.90;;;;;;4980466;28;20480;-69
2021/06/28 08:49:06;;;;;;;5.50;5.30;;;28.50;99.90;;;;;;4985914;28;20985;-68
2021/06/28 08:51:33;;;;;;;5.90;5.70;;;28.70;99.90;;;;;;4982443;28;20978;-68
2021/06/28 08:54:05;;;;;;;5.90;5.50;;;28.60;99.90;;;;;;4982367;28;20470;-69
2021/06/28 08:56:31;;;;;;;4.83;4.73;;;28.20;99.90;;;;;;4976632;28;20508;-68
2021/06/28 08:58:59;;;;;;;5.00;4.90;;;27.80;99.90;;;;;;4977823;28;20459;-68
2021/06/28 09:01:26;;;;;;;5.13;5.03;;;27.40;99.90;;;;;;4990791;28;20486;-68
2021/06/28 09:03:52;;;;;;;6.00;5.80;;;27.00;99.90;;;;;;4992312;28;20467;-68
2021/06/28 09:06:24;;;;;;;5.37;5.27;;;26.80;99.90;;;;;;4987860;28;20524;-68
2021/06/28 09:08:55;;;;;;;6.33;6.03;;;26.60;99.90;;;;;;4976001;28;20794;-68
2021/06/28 09:11:24;;;;;;;5.47;5.10;;;26.50;99.90;;;;;;4979707;28;20573;-68
2021/06/28 09:13:53;;;;;;;5.50;5.20;;;26.60;99.90;;;;;;4978057;28;20466;-68
2021/06/28 09:16:22;;;;;;;4.97;4.87;;;26.70;99.90;;;;;;4979833;28;20503;-68
2021/06/28 09:19:01;;;;;;;4.57;4.47;;;27.10;99.90;;;;;;4984539;28;20475;-65
2021/06/28 09:21:37;;;;;;;5.60;5.37;;;27.70;99.90;;;;;;4986621;28;20498;-65
2021/06/28 09:24:05;;;;;;;4.93;4.73;;;28.00;99.90;;;;;;4993338;28;20871;-64
2021/06/28 09:26:35;;;;;;;6.13;4.83;;;27.90;99.90;;;;;;4992166;28;20551;-64
2021/06/28 09:29:05;;;;;;;5.23;5.03;;;27.80;99.90;;;;;;4985010;28;20749;-64
2021/06/28 09:31:35;;;;;;;5.13;4.93;;;27.80;99.90;;;;;;4977204;28;20928;-66
2021/06/28 09:34:12;;;;;;;4.90;4.60;;;27.80;99.90;;;;;;4971474;28;20461;-67
2021/06/28 09:36:54;;;;;;;4.57;4.47;;;27.90;99.90;;;;;;4988823;28;20311;-67
2021/06/28 09:39:29;;;;;;;4.50;4.40;;;27.90;99.90;;;;;;4974172;28;20521;-68
2021/06/28 09:42:09;;;;;;;4.47;4.37;;;28.30;99.20;;;;;;4972484;28;20482;-67
2021/06/28 09:44:38;;;;;;;4.17;4.07;;;28.60;98.30;;;;;;4973358;28;20462;-67
2021/06/28 09:47:07;;;;;;;3.63;3.53;;;28.90;97.20;;;;;;4978207;28;20462;-65
2021/06/28 09:49:34;;;;;;;3.83;3.73;;;29.10;96.90;;;;;;4981078;28;20466;-64
2021/06/28 09:52:01;;;;;;;3.80;3.67;;;29.40;95.20;;;;;;4972694;28;20502;-65
2021/06/28 09:54:27;;;;;;;4.10;3.90;;;29.60;94.70;;;;;;4976243;28;20527;-66
2021/06/28 09:56:55;;;;;;;4.00;3.70;;;29.70;94.30;;;;;;4973404;28;20535;-68
2021/06/28 09:59:28;;;;;;;4.07;4.03;;;29.80;94.10;;;;;;4983350;28;20837;-69
2021/06/28 10:02:17;;;;;;;3.60;3.60;;;29.60;93.00;;;;;;4986082;28;20547;-68
2021/06/28 10:04:52;;;;;;;3.80;3.60;;;29.30;92.90;;;;;;4973468;28;20532;-69
2021/06/28 10:07:25;;;;;;;4.10;3.70;;;29.30;93.00;;;;;;4979256;28;20466;-69
2021/06/28 10:10:16;;;;;;;4.03;3.90;;;29.40;92.60;;;;;;4990926;28;20451;-68
2021/06/28 10:12:45;;;;;;;3.60;3.60;;;29.60;91.70;;;;;;4988667;28;20443;-69
2021/06/28 10:15:16;;;;;;;3.67;3.57;;;29.50;90.20;;;;;;4984597;28;20466;-67
2021/06/28 10:17:43;;;;;;;3.33;3.23;;;29.40;90.30;;;;;;4976380;28;20466;-68
2021/06/28 10:20:13;;;;;;;3.53;3.33;;;29.00;90.10;;;;;;4974180;28;20458;-67
2021/06/28 10:22:42;;;;;;;3.03;2.93;;;28.90;91.10;;;;;;4987343;28;20458;-68
2021/06/28 10:25:10;;;;;;;3.67;3.60;;;29.10;90.60;;;;;;4990659;28;20992;-68
2021/06/28 10:27:38;;;;;;;4.13;3.90;;;29.10;90.20;;;;;;4972553;28;20470;-68
2021/06/28 10:30:08;;;;;;;3.90;3.70;;;29.20;90.30;;;;;;4975985;28;20486;-68
2021/06/28 10:32:38;;;;;;;3.10;3.10;;;29.40;90.50;;;;;;4985441;28;20481;-69
2021/06/28 10:35:07;;;;;;;3.27;3.17;;;29.20;89.20;;;;;;4992622;28;20464;-68
2021/06/28 10:37:35;;;;;;;4.03;3.93;;;29.20;88.70;;;;;;4980930;28;20480;-69
2021/06/28 10:40:06;;;;;;;4.10;4.00;;;29.10;89.70;;;;;;4985159;28;20465;-64
2021/06/28 10:42:34;;;;;;;3.67;3.57;;;29.10;88.80;;;;;;4982524;28;20480;-67
2021/06/28 10:45:02;;;;;;;3.40;3.30;;;29.10;88.40;;;;;;4992901;28;20482;-66
2021/06/28 10:47:30;;;;;;;3.27;3.27;;;29.10;86.80;;;;;;4988990;28;20477;-66
2021/06/28 10:49:59;;;;;;;3.23;3.17;;;29.30;88.30;;;;;;4996611;28;20479;-66
2021/06/28 10:52:47;;;;;;;3.57;3.47;;;29.50;87.10;;;;;;4994889;28;20497;-65
2021/06/28 10:55:42;;;;;;;3.60;3.50;;;29.60;86.80;;;;;;4984975;28;21037;-65
2021/06/28 10:58:27;;;;;;;3.70;3.60;;;29.80;86.50;;;;;;4994070;28;20458;-65
2021/06/28 11:01:01;;;;;;;3.40;3.30;;;29.80;85.30;;;;;;4995379;28;20490;-68
2021/06/28 11:03:32;;;;;;;3.97;3.97;;;29.70;85.10;;;;;;4995414;28;20481;-67
2021/06/28 11:06:25;;;;;;;3.90;3.80;;;29.80;85.20;;;;;;4994947;28;20497;-68
2021/06/28 11:09:00;;;;;;;3.70;3.60;;;29.70;84.20;;;;;;4995815;28;20831;-69
2021/06/28 11:11:58;;;;;;;4.07;3.97;;;29.70;84.20;;;;;;4984657;28;20480;-67
2021/06/28 11:14:42;;;;;;;3.50;3.40;;;30.00;82.70;;;;;;4994380;28;20541;-68
2021/06/28 11:17:11;;;;;;;4.00;3.90;;;30.10;79.10;;;;;;4995503;28;20473;-67
2021/06/28 11:20:06;;;;;;;3.70;3.60;;;30.00;79.60;;;;;;4996025;28;20480;-68
2021/06/28 11:22:44;;;;;;;3.83;3.60;;;30.00;80.10;;;;;;4977954;28;20460;-68
2021/06/28 11:25:20;;;;;;;3.50;3.40;;;30.30;77.60;;;;;;4985493;28;20461;-68
2021/06/28 11:27:49;;;;;;;3.47;3.27;;;30.30;76.00;;;;;;4975545;28;20474;-68
2021/06/28 11:30:26;;;;;;;3.77;3.70;;;30.20;77.70;;;;;;4976599;28;20465;-68
2021/06/28 11:33:01;;;;;;;3.73;3.43;;;30.10;79.60;;;;;;4976114;28;20464;-68
2021/06/28 11:35:36;;;;;;;3.43;3.43;;;30.10;78.40;;;;;;4976315;28;20460;-68
2021/06/28 11:38:15;;;;;;;3.73;3.73;;;30.30;79.10;;;;;;4975924;28;20468;-68
2021/06/28 11:40:44;;;;;;;3.77;3.77;;;30.30;78.30;;;;;;4992513;28;20557;-68
2021/06/28 11:43:11;;;;;;;3.40;3.40;;;30.30;75.80;;;;;;4994830;28;20568;-68
2021/06/28 11:45:47;;;;;;;4.13;4.03;;;30.30;76.50;;;;;;4981787;28;20486;-68
2021/06/28 11:48:31;;;;;;;3.37;3.37;;;30.40;76.60;;;;;;4975717;28;20463;-68
2021/06/28 11:50:59;;;;;;;4.40;4.30;;;30.40;76.40;;;;;;4975481;28;20490;-67
2021/06/28 11:53:27;;;;;;;4.00;3.90;;;30.30;76.80;;;;;;4975131;28;20981;-68
2021/06/28 11:55:54;;;;;;;4.27;4.20;;;30.40;78.00;;;;;;4975406;28;20467;-68
2021/06/28 11:58:23;;;;;;;4.57;4.47;;;30.60;77.30;;;;;;4975416;28;20473;-68
2021/06/28 12:01:03;;;;;;;4.00;3.90;;;30.60;77.10;;;;;;4975981;28;20512;-69
2021/06/28 12:03:38;;;;;;;4.23;4.13;;;30.60;77.00;;;;;;4975151;28;20501;-66
2021/06/28 12:06:07;;;;;;;3.40;3.30;;;30.50;75.90;;;;;;4975115;28;20501;-67
2021/06/28 12:08:35;;;;;;;3.90;3.80;;;30.60;77.60;;;;;;4977082;28;20782;-67
2021/06/28 12:11:03;;;;;;;3.73;3.70;;;30.50;76.10;;;;;;4994385;28;20637;-67
2021/06/28 12:13:31;;;;;;;4.10;4.00;;;30.40;76.40;;;;;;4994054;28;20464;-67
2021/06/28 12:16:12;;;;;;;3.70;3.60;;;30.40;77.20;;;;;;4979661;28;20770;-67
2021/06/28 12:18:38;;;;;;;4.70;4.33;;;30.40;76.40;;;;;;4975224;28;20466;-67
2021/06/28 12:21:05;;;;;;;4.13;4.03;;;30.70;77.10;;;;;;4974955;28;20486;-67
2021/06/28 12:23:32;;;;;;;3.83;3.73;;;30.90;77.00;;;;;;4974756;28;20470;-67
2021/06/28 12:26:10;;;;;;;4.30;4.20;;;30.90;75.70;;;;;;4974438;28;20496;-67
2021/06/28 12:28:37;;;;;;;3.90;3.90;;;30.80;74.80;;;;;;4974107;28;20473;-67
2021/06/28 12:31:14;;;;;;;4.37;3.97;;;30.80;75.80;;;;;;4975808;28;20880;-67
2021/06/28 12:33:41;;;;;;;4.47;4.27;;;30.80;76.30;;;;;;4974651;28;20471;-65
2021/06/28 12:36:08;;;;;;;3.70;3.67;;;30.90;76.10;;;;;;4974797;28;20464;-65
2021/06/28 12:38:35;;;;;;;4.97;4.67;;;30.90;75.70;;;;;;4974571;28;20476;-65
2021/06/28 12:41:02;;;;;;;4.80;4.60;;;30.80;76.20;;;;;;4974427;28;20517;-66
2021/06/28 12:43:30;;;;;;;4.50;4.30;;;31.00;76.20;;;;;;4973950;28;20473;-65
2021/06/28 12:45:59;;;;;;;4.77;4.67;;;31.00;75.90;;;;;;4974544;28;20988;-65
2021/06/28 12:48:27;;;;;;;5.07;4.53;;;31.00;76.80;;;;;;4975654;28;20473;-65
2021/06/28 12:50:56;;;;;;;4.97;4.87;;;31.10;77.20;;;;;;4974441;28;20494;-65
2021/06/28 12:53:24;;;;;;;5.00;4.80;;;30.90;78.10;;;;;;4974051;28;20838;-64
2021/06/28 12:56:02;;;;;;;5.20;5.10;;;30.90;78.40;;;;;;4974027;28;20466;-65
2021/06/28 12:58:41;;;;;;;5.33;5.13;;;30.90;78.10;;;;;;4974268;28;20534;-65
2021/06/28 13:01:08;;;;;;;5.50;5.07;;;30.90;77.50;;;;;;4973701;28;20506;-65
2021/06/28 13:03:34;;;;;;;4.80;4.70;;;31.00;78.70;;;;;;4975107;28;20469;-65
2021/06/28 13:06:19;;;;;;;4.60;4.40;;;31.10;78.60;;;;;;4975009;28;20494;-67
2021/06/28 13:08:47;;;;;;;5.37;4.97;;;31.00;77.80;;;;;;4974302;28;20803;-67
2021/06/28 13:11:16;;;;;;;5.27;5.07;;;30.90;80.00;;;;;;4973241;28;20488;-66
2021/06/28 13:13:53;;;;;;;5.60;5.40;;;30.60;81.70;;;;;;4988738;28;20472;-67
2021/06/28 13:16:29;;;;;;;5.30;5.00;;;30.30;81.60;;;;;;4993227;28;20583;-67
2021/06/28 13:19:05;;;;;;;5.60;5.40;;;30.40;82.30;;;;;;4992114;28;20467;-68
2021/06/28 13:21:34;;;;;;;4.90;4.80;;;30.60;81.50;;;;;;4992865;28;20488;-68
2021/06/28 13:24:01;;;;;;;4.53;4.33;;;30.70;79.40;;;;;;4982518;28;20470;-68
2021/06/28 13:26:31;;;;;;;5.00;4.90;;;30.70;78.80;;;;;;4973270;28;20483;-68
2021/06/28 13:29:01;;;;;;;5.10;4.90;;;30.60;79.50;;;;;;4973415;28;20464;-67
2021/06/28 13:31:47;;;;;;;5.40;5.20;;;30.40;78.20;;;;;;4973866;28;20557;-67
2021/06/28 13:34:14;;;;;;;5.57;5.30;;;30.40;77.30;;;;;;4973658;28;20463;-68
2021/06/28 13:36:59;;;;;;;5.77;5.57;;;30.40;76.60;;;;;;4974873;28;20462;-68
2021/06/28 13:39:38;;;;;;;5.13;5.03;;;30.50;76.90;;;;;;4981423;28;20776;-68
2021/06/28 13:42:06;;;;;;;5.27;5.07;;;30.60;76.40;;;;;;4990524;28;20508;-68
2021/06/28 13:44:34;;;;;;;5.10;5.00;;;30.80;76.60;;;;;;4992916;28;20471;-68
2021/06/28 13:47:11;;;;;;;5.23;4.93;;;31.10;76.90;;;;;;4992910;28;20490;-67
2021/06/28 13:49:39;;;;;;;5.30;5.10;;;31.30;75.50;;;;;;4992864;28;20480;-65
2021/06/28 13:52:08;;;;;;;4.47;4.37;;;31.40;75.50;;;;;;4992580;28;20566;-66
2021/06/28 13:54:36;;;;;;;5.53;5.23;;;31.60;75.70;;;;;;4977275;28;20499;-65
2021/06/28 13:57:03;;;;;;;5.57;5.37;;;31.50;75.10;;;;;;4985523;28;20967;-67
2021/06/28 13:59:29;;;;;;;5.83;5.63;;;31.40;74.20;;;;;;4992775;28;20858;-66
2021/06/28 14:01:58;;;;;;;5.40;5.20;;;31.20;74.80;;;;;;4992411;28;20492;-65
2021/06/28 14:04:24;;;;;;;5.43;5.23;;;31.20;74.90;;;;;;4991989;28;20468;-66
2021/06/28 14:06:51;;;;;;;5.33;5.13;;;31.30;74.60;;;;;;4992821;28;20499;-66
2021/06/28 14:09:18;;;;;;;6.00;5.70;;;31.40;74.70;;;;;;4992269;28;20468;-66
2021/06/28 14:11:44;;;;;;;4.73;4.63;;;31.50;75.10;;;;;;4989202;28;20483;-66
2021/06/28 14:14:11;;;;;;;6.07;5.80;;;31.70;75.10;;;;;;4972561;28;20520;-66
2021/06/28 14:16:38;;;;;;;6.20;6.00;;;31.90;74.20;;;;;;4980554;28;20469;-66
2021/06/28 14:19:06;;;;;;;5.50;5.30;;;31.90;74.60;;;;;;4994780;28;20804;-66
2021/06/28 14:21:33;;;;;;;5.30;5.20;;;32.10;74.60;;;;;;4998718;28;20498;-65
2021/06/28 14:23:59;;;;;;;6.30;6.00;;;32.20;74.30;;;;;;4998887;28;20459;-65
2021/06/28 14:26:26;;;;;;;5.70;5.50;;;32.10;73.70;;;;;;4998705;28;20492;-65
2021/06/28 14:28:53;;;;;;;5.90;5.70;;;32.10;74.00;;;;;;4982529;28;20471;-66
2021/06/28 14:31:19;;;;;;;5.70;5.50;;;32.10;72.80;;;;;;4979108;28;20491;-66
2021/06/28 14:33:46;;;;;;;6.50;6.10;;;32.20;72.10;;;;;;4979408;28;20478;-66
2021/06/28 14:36:14;;;;;;;6.50;6.30;;;32.10;72.80;;;;;;4979553;28;20462;-65
2021/06/28 14:38:41;;;;;;;6.17;5.73;;;32.10;73.30;;;;;;4979875;28;20467;-65
2021/06/28 14:41:08;;;;;;;5.60;5.50;;;32.00;73.10;;;;;;4978860;28;20494;-65
2021/06/28 14:43:35;;;;;;;6.03;5.83;;;32.00;74.20;;;;;;4979343;28;20488;-66
2021/06/28 14:46:02;;;;;;;5.93;5.83;;;31.80;73.50;;;;;;4987055;28;20468;-66
2021/06/28 14:48:28;;;;;;;6.10;5.90;;;31.80;74.90;;;;;;4986557;28;20456;-64
2021/06/28 14:50:55;;;;;;;6.30;6.03;;;31.90;74.30;;;;;;4998041;28;20489;-66
2021/06/28 14:53:23;;;;;;;6.30;6.10;;;31.90;73.00;;;;;;4997138;28;20464;-66
2021/06/28 14:55:51;;;;;;;6.30;6.10;;;31.90;73.10;;;;;;4998706;28;20469;-65
2021/06/28 14:58:18;;;;;;;6.83;6.53;;;32.00;73.10;;;;;;4984484;28;20462;-66
2021/06/28 15:00:45;;;;;;;6.90;6.60;;;32.00;72.60;;;;;;4980820;28;20520;-66
2021/06/28 15:03:12;;;;;;;6.50;6.20;;;32.20;73.10;;;;;;4975763;28;20478;-66
2021/06/28 15:05:39;;;;;;;5.80;5.70;;;32.10;71.80;;;;;;4979221;28;20807;-66
2021/06/28 15:08:06;;;;;;;6.13;5.93;;;31.60;72.70;;;;;;4978475;28;20496;-66
2021/06/28 15:10:34;;;;;;;6.93;6.70;;;31.70;74.80;;;;;;4978900;28;20987;-66
2021/06/28 15:13:00;;;;;;;6.47;6.27;;;32.10;73.80;;;;;;4977411;28;20848;-66
2021/06/28 15:15:27;;;;;;;5.73;5.63;;;32.40;73.50;;;;;;4989972;28;20484;-66
2021/06/28 15:17:54;;;;;;;7.00;6.70;;;32.50;72.60;;;;;;4990903;28;20489;-66
2021/06/28 15:20:21;;;;;;;6.20;6.00;;;32.50;73.00;;;;;;4993045;28;20462;-66
2021/06/28 15:22:48;;;;;;;6.83;6.63;;;32.60;72.10;;;;;;4994641;28;20853;-65
2021/06/28 15:25:17;;;;;;;6.57;6.37;;;32.50;73.00;;;;;;4980896;28;20463;-66
2021/06/28 15:27:50;;;;;;;7.37;7.10;;;32.50;71.70;;;;;;4994638;28;20597;-66
2021/06/28 15:30:18;;;;;;;6.87;6.57;;;32.60;72.10;;;;;;4982354;28;20471;-64
2021/06/28 15:32:45;;;;;;;6.83;6.57;;;32.60;70.50;;;;;;4976335;28;20474;-66
2021/06/28 15:35:12;;;;;;;7.27;6.97;;;32.60;71.90;;;;;;4977886;28;20466;-65
2021/06/28 15:37:39;;;;;;;6.23;6.03;;;32.60;71.50;;;;;;4977230;28;20794;-68
2021/06/28 15:40:08;;;;;;;7.57;7.27;;;32.60;70.80;;;;;;4975788;28;20503;-66
2021/06/28 15:42:35;;;;;;;7.27;6.97;;;32.80;70.90;;;;;;4974137;28;20468;-68
2021/06/28 15:45:03;;;;;;;7.40;7.10;;;32.70;69.70;;;;;;4974906;28;20985;-69
2021/06/28 15:47:30;;;;;;;6.60;6.40;;;32.40;70.70;;;;;;4974910;28;20836;-69
2021/06/28 15:49:57;;;;;;;6.97;6.70;;;32.00;71.70;;;;;;4994024;28;20463;-68
2021/06/28 15:52:23;;;;;;;6.90;6.60;;;31.80;72.40;;;;;;4994072;28;20490;-66
2021/06/28 15:54:50;;;;;;;7.43;6.93;;;31.60;73.00;;;;;;4990762;28;20574;-66
2021/06/28 15:57:17;;;;;;;6.40;6.10;;;31.50;73.40;;;;;;4983532;28;20466;-66
2021/06/28 15:59:43;;;;;;;7.43;7.20;;;31.40;73.40;;;;;;4989771;28;20460;-66
2021/06/28 16:02:11;;;;;;;7.50;7.23;;;31.20;73.90;;;;;;4990024;28;20486;-66
2021/06/28 16:04:38;;;;;;;7.53;7.13;;;31.00;74.40;;;;;;4986138;28;20456;-67
2021/06/28 16:07:05;;;;;;;7.30;6.90;;;30.90;75.50;;;;;;4975968;28;20481;-66
2021/06/28 16:09:32;;;;;;;7.50;7.20;;;30.70;75.30;;;;;;4982539;28;20468;-66
2021/06/28 16:11:58;;;;;;;8.10;7.77;;;30.80;75.70;;;;;;4983105;28;20481;-66
2021/06/28 16:14:28;;;;;;;7.37;7.00;;;30.70;75.50;;;;;;4993249;28;20457;-66
2021/06/28 16:16:55;;;;;;;7.50;7.20;;;30.70;75.70;;;;;;4982453;28;20825;-66
2021/06/28 16:19:23;;;;;;;6.87;6.67;;;30.70;76.20;;;;;;4975024;28;20462;-66
2021/06/28 16:21:50;;;;;;;7.40;7.10;;;30.70;75.60;;;;;;4974793;28;20493;-67
2021/06/28 16:24:17;;;;;;;7.53;7.23;;;30.70;76.10;;;;;;4990136;28;20469;-66
2021/06/28 16:26:43;;;;;;;7.60;7.30;;;30.70;77.00;;;;;;4993677;28;20917;-66
2021/06/28 16:29:10;;;;;;;8.00;7.50;;;30.60;76.30;;;;;;4991411;28;20565;-65
2021/06/28 16:31:37;;;;;;;7.50;7.10;;;30.50;77.60;;;;;;4988195;28;20495;-65
2021/06/28 16:34:03;;;;;;;7.23;6.93;;;30.40;78.10;;;;;;4974420;28;20976;-65
2021/06/28 16:36:31;;;;;;;7.67;7.27;;;30.30;78.50;;;;;;4978106;28;20995;-65
2021/06/28 16:38:58;;;;;;;7.30;6.90;;;30.30;78.90;;;;;;4988554;28;20459;-65
2021/06/28 16:41:25;;;;;;;7.50;7.00;;;30.20;78.70;;;;;;4984519;28;20496;-66
2021/06/28 16:43:52;;;;;;;7.33;7.03;;;30.00;79.60;;;;;;4974280;28;20468;-67
2021/06/28 16:46:19;;;;;;;7.97;7.57;;;29.90;79.50;;;;;;4985524;28;20458;-66
2021/06/28 16:48:50;;;;;;;7.10;6.87;;;29.90;79.90;;;;;;4985944;28;20495;-65
2021/06/28 16:51:17;;;;;;;8.50;8.10;;;29.90;80.60;;;;;;4982340;28;20512;-63
2021/06/28 16:53:45;;;;;;;7.03;6.83;;;30.10;81.40;;;;;;4974222;28;20919;-64